createdAt,value
2023-04-16T00:00:43.892Z,855.00
2023-04-16T00:01:43.912Z,839.00
2023-04-16T00:02:43.944Z,805.00
2023-04-16T00:03:44.116Z,772.00
2023-04-16T00:04:43.948Z,755.00
2023-04-16T00:05:43.853Z,819.00
2023-04-16T00:06:43.834Z,824.00
2023-04-16T00:07:43.838Z,839.00
2023-04-16T00:08:43.881Z,813.00
2023-04-16T00:09:43.835Z,819.00
2023-04-16T00:10:43.810Z,821.00
2023-04-16T00:11:43.803Z,794.00
2023-04-16T00:12:43.804Z,856.00
2023-04-16T00:13:43.803Z,826.00
2023-04-16T00:14:43.799Z,786.00
2023-04-16T00:15:43.780Z,788.00
2023-04-16T00:16:43.792Z,788.00
2023-04-16T00:17:43.803Z,847.00
2023-04-16T00:18:43.767Z,850.00
2023-04-16T00:19:43.747Z,844.00
2023-04-16T00:20:43.749Z,847.00
2023-04-16T00:21:43.755Z,849.00
2023-04-16T00:22:43.734Z,853.00
2023-04-16T00:23:43.753Z,871.00
2023-04-16T00:24:43.736Z,834.00
2023-04-16T00:25:43.714Z,762.00
2023-04-16T00:26:43.718Z,783.00
2023-04-16T00:27:43.715Z,726.00
2023-04-16T00:28:43.713Z,740.00
2023-04-16T00:29:43.707Z,741.00
2023-04-16T00:30:43.715Z,746.00
2023-04-16T00:31:43.689Z,736.00
2023-04-16T00:32:43.723Z,749.00
2023-04-16T00:33:43.663Z,792.00
2023-04-16T00:34:43.663Z,810.00
2023-04-16T00:35:43.655Z,823.00
2023-04-16T00:36:43.665Z,786.00
2023-04-16T00:37:43.628Z,764.00
2023-04-16T00:38:43.641Z,785.00
2023-04-16T00:39:43.614Z,788.00
2023-04-16T00:40:43.613Z,758.00
2023-04-16T00:41:43.614Z,778.00
2023-04-16T00:42:43.609Z,771.00
2023-04-16T00:43:43.621Z,795.00
2023-04-16T00:44:43.595Z,781.00
2023-04-16T00:45:43.592Z,788.00
2023-04-16T00:46:43.668Z,777.00
2023-04-16T00:47:43.649Z,779.00
2023-04-16T00:48:43.597Z,787.00
2023-04-16T00:49:43.600Z,791.00
2023-04-16T00:50:43.598Z,777.00
2023-04-16T00:51:43.599Z,752.00
2023-04-16T00:52:43.580Z,746.00
2023-04-16T00:53:43.586Z,719.00
2023-04-16T00:54:43.570Z,714.00
2023-04-16T00:55:43.561Z,759.00
2023-04-16T00:56:43.569Z,782.00
2023-04-16T00:57:43.566Z,787.00
2023-04-16T00:58:43.553Z,767.00
2023-04-16T00:59:43.537Z,750.00
2023-04-16T01:00:43.547Z,732.00
2023-04-16T01:01:43.618Z,770.00
2023-04-16T01:02:43.616Z,797.00
2023-04-16T01:03:43.786Z,801.00
2023-04-16T01:04:43.554Z,743.00
2023-04-16T01:05:43.545Z,706.00
2023-04-16T01:06:43.542Z,747.00
2023-04-16T01:07:43.554Z,764.00
2023-04-16T01:08:43.550Z,794.00
2023-04-16T01:09:43.538Z,774.00
2023-04-16T01:10:43.544Z,797.00
2023-04-16T01:11:43.545Z,776.00
2023-04-16T01:12:43.559Z,774.00
2023-04-16T01:13:43.593Z,772.00
2023-04-16T01:14:43.553Z,748.00
2023-04-16T01:15:43.616Z,758.00
2023-04-16T01:16:43.566Z,778.00
2023-04-16T01:17:43.596Z,767.00
2023-04-16T01:18:43.565Z,796.00
2023-04-16T01:19:43.547Z,762.00
2023-04-16T01:20:43.556Z,798.00
2023-04-16T01:21:43.554Z,787.00
2023-04-16T01:22:43.568Z,778.00
2023-04-16T01:23:43.562Z,779.00
2023-04-16T01:24:43.555Z,749.00
2023-04-16T01:25:43.565Z,782.00
2023-04-16T01:26:43.555Z,792.00
2023-04-16T01:27:43.630Z,778.00
2023-04-16T01:28:43.566Z,729.00
2023-04-16T01:29:43.563Z,750.00
2023-04-16T01:30:43.557Z,791.00
2023-04-16T01:31:43.570Z,791.00
2023-04-16T01:32:43.597Z,787.00
2023-04-16T01:33:43.557Z,814.00
2023-04-16T01:34:43.545Z,817.00
2023-04-16T01:35:43.531Z,788.00
2023-04-16T01:36:43.532Z,791.00
2023-04-16T01:37:43.543Z,793.00
2023-04-16T01:38:43.528Z,820.00
2023-04-16T01:39:43.538Z,827.00
2023-04-16T01:40:43.539Z,831.00
2023-04-16T01:41:43.540Z,843.00
2023-04-16T01:42:43.537Z,804.00
2023-04-16T01:43:43.539Z,776.00
2023-04-16T01:44:43.532Z,791.00
2023-04-16T01:45:43.520Z,776.00
2023-04-16T01:46:43.554Z,791.00
2023-04-16T01:47:43.565Z,825.00
2023-04-16T01:48:43.536Z,798.00
2023-04-16T01:49:43.532Z,746.00
2023-04-16T01:50:43.540Z,783.00
2023-04-16T01:51:43.523Z,784.00
2023-04-16T01:52:43.545Z,825.00
2023-04-16T01:53:43.542Z,808.00
2023-04-16T01:54:43.540Z,805.00
2023-04-16T01:55:43.541Z,823.00
2023-04-16T01:56:43.530Z,803.00
2023-04-16T01:57:43.547Z,817.00
2023-04-16T01:58:43.562Z,778.00
2023-04-16T01:59:43.547Z,757.00
2023-04-16T02:00:43.575Z,730.00
2023-04-16T02:01:43.603Z,766.00
2023-04-16T02:02:43.696Z,723.00
2023-04-16T02:03:43.706Z,736.00
2023-04-16T02:04:43.577Z,756.00
2023-04-16T02:05:43.568Z,767.00
2023-04-16T02:06:43.560Z,736.00
2023-04-16T02:07:43.623Z,731.00
2023-04-16T02:08:43.575Z,764.00
2023-04-16T02:09:43.559Z,798.00
2023-04-16T02:10:43.591Z,768.00
2023-04-16T02:11:43.587Z,748.00
2023-04-16T02:12:43.582Z,747.00
2023-04-16T02:13:43.574Z,776.00
2023-04-16T02:14:43.571Z,776.00
2023-04-16T02:15:43.565Z,766.00
2023-04-16T02:16:43.623Z,728.00
2023-04-16T02:17:43.619Z,753.00
2023-04-16T02:18:43.606Z,774.00
2023-04-16T02:19:43.595Z,760.00
2023-04-16T02:20:43.584Z,769.00
2023-04-16T02:21:43.599Z,745.00
2023-04-16T02:22:43.628Z,747.00
2023-04-16T02:23:43.594Z,763.00
2023-04-16T02:24:43.592Z,762.00
2023-04-16T02:25:43.596Z,815.00
2023-04-16T02:26:43.618Z,822.00
2023-04-16T02:27:43.604Z,814.00
2023-04-16T02:28:43.626Z,803.00
2023-04-16T02:29:43.632Z,812.00
2023-04-16T02:30:43.629Z,807.00
2023-04-16T02:31:43.679Z,792.00
2023-04-16T02:32:43.695Z,784.00
2023-04-16T02:33:43.636Z,798.00
2023-04-16T02:34:43.649Z,790.00
2023-04-16T02:35:43.643Z,769.00
2023-04-16T02:36:43.646Z,744.00
2023-04-16T02:37:43.673Z,747.00
2023-04-16T02:38:43.664Z,770.00
2023-04-16T02:39:43.671Z,775.00
2023-04-16T02:40:43.702Z,780.00
2023-04-16T02:41:43.684Z,756.00
2023-04-16T02:42:43.696Z,771.00
2023-04-16T02:43:43.720Z,792.00
2023-04-16T02:44:43.727Z,775.00
2023-04-16T02:45:43.783Z,782.00
2023-04-16T02:46:43.730Z,788.00
2023-04-16T02:47:43.779Z,806.00
2023-04-16T02:48:43.740Z,784.00
2023-04-16T02:49:43.751Z,789.00
2023-04-16T02:50:43.738Z,803.00
2023-04-16T02:51:43.772Z,794.00
2023-04-16T02:52:43.746Z,796.00
2023-04-16T02:53:43.787Z,810.00
2023-04-16T02:54:43.777Z,808.00
2023-04-16T02:55:43.763Z,776.00
2023-04-16T02:56:43.785Z,780.00
2023-04-16T02:57:43.800Z,813.00
2023-04-16T02:58:43.794Z,814.00
2023-04-16T02:59:43.801Z,802.00
2023-04-16T03:00:43.797Z,815.00
2023-04-16T03:01:43.878Z,785.00
2023-04-16T03:02:43.871Z,834.00
2023-04-16T03:03:43.820Z,817.00
2023-04-16T03:04:43.960Z,799.00
2023-04-16T03:05:43.822Z,763.00
2023-04-16T03:06:43.820Z,823.00
2023-04-16T03:07:43.823Z,817.00
2023-04-16T03:08:43.833Z,809.00
2023-04-16T03:09:43.830Z,813.00
2023-04-16T03:10:43.858Z,819.00
2023-04-16T03:11:43.845Z,840.00
2023-04-16T03:12:43.857Z,841.00
2023-04-16T03:13:43.888Z,842.00
2023-04-16T03:14:43.878Z,829.00
2023-04-16T03:15:43.909Z,825.00
2023-04-16T03:16:43.906Z,765.00
2023-04-16T03:17:44.002Z,800.00
2023-04-16T03:18:43.911Z,837.00
2023-04-16T03:19:43.919Z,798.00
2023-04-16T03:20:43.952Z,744.00
2023-04-16T03:21:43.947Z,774.00
2023-04-16T03:22:43.960Z,797.00
2023-04-16T03:23:43.982Z,808.00
2023-04-16T03:24:43.967Z,845.00
2023-04-16T03:25:43.966Z,844.00
2023-04-16T03:26:43.978Z,800.00
2023-04-16T03:27:43.998Z,829.00
2023-04-16T03:28:43.989Z,843.00
2023-04-16T03:29:44.007Z,795.00
2023-04-16T03:30:44.004Z,803.00
2023-04-16T03:31:44.021Z,827.00
2023-04-16T03:32:44.101Z,808.00
2023-04-16T03:33:44.088Z,793.00
2023-04-16T03:34:44.061Z,811.00
2023-04-16T03:35:44.046Z,795.00
2023-04-16T03:36:44.065Z,788.00
2023-04-16T03:37:44.066Z,751.00
2023-04-16T03:38:44.061Z,780.00
2023-04-16T03:39:44.078Z,800.00
2023-04-16T03:40:44.086Z,776.00
2023-04-16T03:41:44.099Z,779.00
2023-04-16T03:42:44.106Z,740.00
2023-04-16T03:43:44.149Z,805.00
2023-04-16T03:44:44.120Z,813.00
2023-04-16T03:45:44.129Z,801.00
2023-04-16T03:46:44.167Z,841.00
2023-04-16T03:47:44.158Z,827.00
2023-04-16T03:48:44.146Z,825.00
2023-04-16T03:49:44.140Z,844.00
2023-04-16T03:50:44.150Z,841.00
2023-04-16T03:51:44.137Z,847.00
2023-04-16T03:52:44.160Z,861.00
2023-04-16T03:53:44.202Z,838.00
2023-04-16T03:54:44.169Z,852.00
2023-04-16T03:55:44.173Z,848.00
2023-04-16T03:56:44.212Z,850.00
2023-04-16T03:57:44.183Z,841.00
2023-04-16T03:58:44.208Z,843.00
2023-04-16T03:59:44.181Z,872.00
2023-04-16T04:00:44.214Z,846.00
2023-04-16T04:01:44.251Z,845.00
2023-04-16T04:02:44.384Z,891.00
2023-04-16T04:03:44.418Z,875.00
2023-04-16T04:04:44.302Z,914.00
2023-04-16T04:05:44.262Z,914.00
2023-04-16T04:06:44.250Z,878.00
2023-04-16T04:07:44.253Z,865.00
2023-04-16T04:08:44.271Z,875.00
2023-04-16T04:09:44.255Z,893.00
2023-04-16T04:10:44.278Z,883.00
2023-04-16T04:11:44.289Z,899.00
2023-04-16T04:12:44.311Z,860.00
2023-04-16T04:13:44.316Z,883.00
2023-04-16T04:14:44.316Z,879.00
2023-04-16T04:15:44.329Z,905.00
2023-04-16T04:16:44.367Z,867.00
2023-04-16T04:17:44.363Z,861.00
2023-04-16T04:18:44.662Z,857.00
2023-04-16T04:19:54.291Z,874.00
2023-04-16T04:20:45.352Z,875.00
2023-04-16T04:21:44.343Z,862.00
2023-04-16T04:22:44.372Z,874.00
2023-04-16T04:23:44.337Z,864.00
2023-04-16T04:24:44.339Z,865.00
2023-04-16T04:25:44.326Z,814.00
2023-04-16T04:26:44.316Z,838.00
2023-04-16T04:27:44.305Z,844.00
2023-04-16T04:28:44.323Z,862.00
2023-04-16T04:29:44.313Z,850.00
2023-04-16T04:30:44.300Z,872.00
2023-04-16T04:31:44.347Z,867.00
2023-04-16T04:32:44.297Z,891.00
2023-04-16T04:33:44.288Z,873.00
2023-04-16T04:34:44.267Z,864.00
2023-04-16T04:35:44.258Z,877.00
2023-04-16T04:36:44.248Z,878.00
2023-04-16T04:37:44.249Z,868.00
2023-04-16T04:38:44.255Z,871.00
2023-04-16T04:39:44.246Z,875.00
2023-04-16T04:40:44.219Z,861.00
2023-04-16T04:41:44.218Z,889.00
2023-04-16T04:42:44.208Z,880.00
2023-04-16T04:43:44.259Z,860.00
2023-04-16T04:44:44.213Z,892.00
2023-04-16T04:45:44.293Z,858.00
2023-04-16T04:46:44.197Z,880.00
2023-04-16T04:47:44.202Z,893.00
2023-04-16T04:48:44.201Z,908.00
2023-04-16T04:49:44.173Z,914.00
2023-04-16T04:50:44.162Z,903.00
2023-04-16T04:51:44.161Z,882.00
2023-04-16T04:52:44.149Z,887.00
2023-04-16T04:53:44.139Z,878.00
2023-04-16T04:54:44.171Z,880.00
2023-04-16T04:55:44.131Z,874.00
2023-04-16T04:56:44.130Z,870.00
2023-04-16T04:57:44.154Z,886.00
2023-04-16T04:58:44.145Z,857.00
2023-04-16T04:59:44.160Z,879.00
2023-04-16T05:00:44.268Z,850.00
2023-04-16T05:01:44.172Z,826.00
2023-04-16T05:02:44.304Z,836.00
2023-04-16T05:03:44.262Z,860.00
2023-04-16T05:04:44.196Z,847.00
2023-04-16T05:05:44.236Z,837.00
2023-04-16T05:06:44.217Z,855.00
2023-04-16T05:07:44.211Z,813.00
2023-04-16T05:08:44.257Z,824.00
2023-04-16T05:09:44.230Z,847.00
2023-04-16T05:10:44.253Z,809.00
2023-04-16T05:11:44.267Z,836.00
2023-04-16T05:12:44.794Z,853.00
2023-04-16T05:13:44.309Z,863.00
2023-04-16T05:14:44.271Z,849.00
2023-04-16T05:15:44.269Z,859.00
2023-04-16T05:16:44.334Z,871.00
2023-04-16T05:17:44.327Z,857.00
2023-04-16T05:18:44.306Z,865.00
2023-04-16T05:19:44.317Z,891.00
2023-04-16T05:20:44.300Z,883.00
2023-04-16T05:21:44.306Z,909.00
2023-04-16T05:22:44.333Z,894.00
2023-04-16T05:23:44.386Z,916.00
2023-04-16T05:24:44.344Z,915.00
2023-04-16T05:25:44.332Z,928.00
2023-04-16T05:26:44.361Z,913.00
2023-04-16T05:27:44.365Z,903.00
2023-04-16T05:28:44.365Z,909.00
2023-04-16T05:29:44.378Z,894.00
2023-04-16T05:30:44.421Z,876.00
2023-04-16T05:31:44.392Z,880.00
2023-04-16T05:32:44.447Z,860.00
2023-04-16T05:33:44.431Z,896.00
2023-04-16T05:34:44.402Z,872.00
2023-04-16T05:35:44.407Z,856.00
2023-04-16T05:36:44.431Z,896.00
2023-04-16T05:37:44.439Z,893.00
2023-04-16T05:38:44.450Z,887.00
2023-04-16T05:39:44.443Z,895.00
2023-04-16T05:40:44.440Z,891.00
2023-04-16T05:41:44.465Z,900.00
2023-04-16T05:42:44.461Z,879.00
2023-04-16T05:43:44.486Z,884.00
2023-04-16T05:44:44.488Z,873.00
2023-04-16T05:45:44.496Z,896.00
2023-04-16T05:46:44.504Z,904.00
2023-04-16T05:47:44.544Z,898.00
2023-04-16T05:48:44.521Z,900.00
2023-04-16T05:49:44.501Z,911.00
2023-04-16T05:50:44.517Z,895.00
2023-04-16T05:51:44.501Z,887.00
2023-04-16T05:52:44.519Z,893.00
2023-04-16T05:53:44.534Z,870.00
2023-04-16T05:54:44.534Z,885.00
2023-04-16T05:55:44.532Z,854.00
2023-04-16T05:56:44.539Z,828.00
2023-04-16T05:57:44.531Z,880.00
2023-04-16T05:58:44.540Z,877.00
2023-04-16T05:59:44.563Z,874.00
2023-04-16T06:00:44.545Z,860.00
2023-04-16T06:01:44.552Z,866.00
2023-04-16T06:02:44.788Z,881.00
2023-04-16T06:03:44.825Z,865.00
2023-04-16T06:04:44.567Z,879.00
2023-04-16T06:05:44.610Z,872.00
2023-04-16T06:06:44.590Z,865.00
2023-04-16T06:07:44.618Z,880.00
2023-04-16T06:08:44.605Z,873.00
2023-04-16T06:09:44.603Z,872.00
2023-04-16T06:10:44.628Z,846.00
2023-04-16T06:11:44.624Z,856.00
2023-04-16T06:12:44.637Z,883.00
2023-04-16T06:13:44.658Z,878.00
2023-04-16T06:14:44.668Z,908.00
2023-04-16T06:15:44.699Z,906.00
2023-04-16T06:16:44.694Z,916.00
2023-04-16T06:17:44.728Z,921.00
2023-04-16T06:18:44.712Z,931.00
2023-04-16T06:19:44.707Z,939.00
2023-04-16T06:20:44.713Z,888.00
2023-04-16T06:21:44.724Z,887.00
2023-04-16T06:22:44.740Z,905.00
2023-04-16T06:23:44.753Z,869.00
2023-04-16T06:24:44.766Z,869.00
2023-04-16T06:25:44.755Z,875.00
2023-04-16T06:26:44.782Z,883.00
2023-04-16T06:27:44.783Z,894.00
2023-04-16T06:28:44.771Z,887.00
2023-04-16T06:29:44.786Z,902.00
2023-04-16T06:30:44.908Z,898.00
2023-04-16T06:31:44.818Z,892.00
2023-04-16T06:32:44.904Z,905.00
2023-04-16T06:33:44.813Z,903.00
2023-04-16T06:34:44.850Z,867.00
2023-04-16T06:35:44.839Z,860.00
2023-04-16T06:36:44.850Z,836.00
2023-04-16T06:37:44.876Z,836.00
2023-04-16T06:38:44.870Z,820.00
2023-04-16T06:39:44.890Z,870.00
2023-04-16T06:40:44.883Z,846.00
2023-04-16T06:41:44.897Z,880.00
2023-04-16T06:42:45.675Z,879.00
2023-04-16T06:43:44.902Z,832.00
2023-04-16T06:44:44.900Z,873.00
2023-04-16T06:45:44.955Z,875.00
2023-04-16T06:46:44.953Z,907.00
2023-04-16T06:47:44.954Z,895.00
2023-04-16T06:48:44.928Z,878.00
2023-04-16T06:49:44.972Z,900.00
2023-04-16T06:50:44.954Z,873.00
2023-04-16T06:51:44.946Z,877.00
2023-04-16T06:52:44.960Z,857.00
2023-04-16T06:53:44.998Z,864.00
2023-04-16T06:54:44.978Z,910.00
2023-04-16T06:55:44.978Z,945.00
2023-04-16T06:56:44.966Z,938.00
2023-04-16T06:57:44.991Z,935.00
2023-04-16T06:58:44.973Z,933.00
2023-04-16T06:59:44.983Z,924.00
2023-04-16T07:00:45.022Z,927.00
2023-04-16T07:01:45.037Z,900.00
2023-04-16T07:02:45.112Z,931.00
2023-04-16T07:03:45.168Z,911.00
2023-04-16T07:04:44.996Z,914.00
2023-04-16T07:05:45.008Z,910.00
2023-04-16T07:06:45.018Z,899.00
2023-04-16T07:07:44.980Z,904.00
2023-04-16T07:08:45.019Z,908.00
2023-04-16T07:09:45.003Z,953.00
2023-04-16T07:10:44.983Z,987.00
2023-04-16T07:11:45.015Z,961.00
2023-04-16T07:12:44.976Z,962.00
2023-04-16T07:13:44.984Z,1010.00
2023-04-16T07:14:44.986Z,1010.00
2023-04-16T07:15:44.978Z,981.00
2023-04-16T07:16:45.045Z,964.00
2023-04-16T07:17:45.005Z,988.00
2023-04-16T07:18:44.989Z,1010.00
2023-04-16T07:19:44.980Z,986.00
2023-04-16T07:20:44.971Z,1004.00
2023-04-16T07:21:44.980Z,1000.00
2023-04-16T07:22:44.984Z,923.00
2023-04-16T07:23:44.984Z,903.00
2023-04-16T07:24:44.963Z,953.00
2023-04-16T07:25:45.015Z,955.00
2023-04-16T07:26:44.945Z,949.00
2023-04-16T07:27:44.948Z,922.00
2023-04-16T07:28:44.953Z,894.00
2023-04-16T07:29:44.941Z,907.00
2023-04-16T07:30:44.942Z,936.00
2023-04-16T07:31:44.967Z,902.00
2023-04-16T07:32:44.989Z,898.00
2023-04-16T07:33:44.927Z,776.00
2023-04-16T07:34:44.932Z,803.00
2023-04-16T07:35:44.917Z,794.00
2023-04-16T07:36:44.920Z,786.00
2023-04-16T07:37:44.931Z,752.00
2023-04-16T07:38:44.956Z,729.00
2023-04-16T07:39:44.979Z,663.00
2023-04-16T07:40:44.990Z,678.00
2023-04-16T07:41:45.007Z,673.00
2023-04-16T07:42:45.042Z,649.00
2023-04-16T07:43:45.061Z,638.00
2023-04-16T07:44:45.077Z,658.00
2023-04-16T07:45:45.108Z,632.00
2023-04-16T07:46:47.319Z,630.00
2023-04-16T07:47:45.332Z,643.00
2023-04-16T07:48:45.315Z,631.00
2023-04-16T07:49:45.357Z,620.00
2023-04-16T07:50:45.372Z,636.00
2023-04-16T07:51:45.403Z,628.00
2023-04-16T07:52:45.446Z,631.00
2023-04-16T07:53:45.445Z,632.00
2023-04-16T07:54:45.489Z,635.00
2023-04-16T07:55:45.518Z,641.00
2023-04-16T07:56:45.535Z,638.00
2023-04-16T07:57:45.569Z,631.00
2023-04-16T07:58:45.612Z,629.00
2023-04-16T07:59:45.637Z,627.00
2023-04-16T08:00:45.689Z,636.00
2023-04-16T08:01:45.686Z,633.00
2023-04-16T08:02:45.804Z,638.00
2023-04-16T08:03:45.907Z,641.00
2023-04-16T08:04:45.974Z,642.00
2023-04-16T08:05:45.834Z,643.00
2023-04-16T08:06:45.874Z,644.00
2023-04-16T08:07:45.932Z,650.00
2023-04-16T08:08:45.979Z,646.00
2023-04-16T08:09:46.025Z,640.00
2023-04-16T08:10:46.098Z,643.00
2023-04-16T08:11:46.132Z,639.00
2023-04-16T08:12:46.181Z,642.00
2023-04-16T08:13:46.234Z,643.00
2023-04-16T08:14:46.303Z,625.00
2023-04-16T08:15:46.438Z,629.00
2023-04-16T08:16:46.454Z,630.00
2023-04-16T08:17:46.573Z,630.00
2023-04-16T08:18:46.567Z,639.00
2023-04-16T08:19:46.616Z,636.00
2023-04-16T08:20:46.684Z,636.00
2023-04-16T08:21:46.733Z,641.00
2023-04-16T08:22:46.809Z,643.00
2023-04-16T08:23:46.838Z,641.00
2023-04-16T08:24:46.906Z,642.00
2023-04-16T08:25:46.959Z,636.00
2023-04-16T08:26:47.033Z,639.00
2023-04-16T08:27:47.089Z,642.00
2023-04-16T08:28:47.131Z,635.00
2023-04-16T08:29:47.206Z,633.00
2023-04-16T08:30:47.255Z,627.00
2023-04-16T08:31:47.363Z,628.00
2023-04-16T08:32:49.369Z,623.00
2023-04-16T08:33:47.382Z,639.00
2023-04-16T08:34:47.377Z,633.00
2023-04-16T08:35:47.368Z,643.00
2023-04-16T08:36:47.336Z,644.00
2023-04-16T08:37:47.349Z,635.00
2023-04-16T08:38:47.337Z,640.00
2023-04-16T08:39:47.314Z,644.00
2023-04-16T08:40:47.307Z,637.00
2023-04-16T08:41:47.322Z,646.00
2023-04-16T08:42:47.309Z,644.00
2023-04-16T08:43:47.312Z,641.00
2023-04-16T08:44:48.554Z,635.00
2023-04-16T08:45:47.295Z,640.00
2023-04-16T08:46:47.289Z,644.00
2023-04-16T08:47:47.338Z,640.00
2023-04-16T08:48:47.303Z,645.00
2023-04-16T08:49:47.257Z,642.00
2023-04-16T08:50:47.247Z,645.00
2023-04-16T08:51:47.274Z,636.00
2023-04-16T08:52:47.248Z,646.00
2023-04-16T08:53:47.243Z,638.00
2023-04-16T08:54:47.228Z,646.00
2023-04-16T08:55:48.236Z,643.00
2023-04-16T08:56:47.223Z,646.00
2023-04-16T08:57:47.237Z,647.00
2023-04-16T08:58:47.198Z,656.00
2023-04-16T08:59:47.214Z,664.00
2023-04-16T09:00:47.185Z,695.00
2023-04-16T09:01:47.220Z,680.00
2023-04-16T09:02:47.426Z,661.00
2023-04-16T09:03:47.337Z,652.00
2023-04-16T09:04:47.272Z,658.00
2023-04-16T09:05:47.264Z,676.00
2023-04-16T09:06:47.321Z,717.00
2023-04-16T09:07:47.370Z,738.00
2023-04-16T09:08:47.451Z,750.00
2023-04-16T09:09:47.488Z,745.00
2023-04-16T09:10:47.521Z,728.00
2023-04-16T09:11:47.571Z,733.00
2023-04-16T09:12:47.623Z,723.00
2023-04-16T09:13:47.689Z,716.00
2023-04-16T09:14:47.738Z,723.00
2023-04-16T09:15:47.787Z,676.00
2023-04-16T09:16:47.915Z,659.00
2023-04-16T09:17:47.919Z,656.00
2023-04-16T09:18:47.963Z,653.00
2023-04-16T09:19:48.014Z,653.00
2023-04-16T09:20:48.062Z,660.00
2023-04-16T09:21:48.115Z,664.00
2023-04-16T09:22:48.190Z,665.00
2023-04-16T09:23:48.226Z,714.00
2023-04-16T09:24:48.321Z,715.00
2023-04-16T09:25:48.337Z,697.00
2023-04-16T09:26:48.421Z,713.00
2023-04-16T09:27:48.473Z,671.00
2023-04-16T09:28:48.552Z,666.00
2023-04-16T09:29:48.566Z,669.00
2023-04-16T09:30:48.635Z,695.00
2023-04-16T09:31:48.842Z,701.00
2023-04-16T09:32:48.767Z,726.00
2023-04-16T09:33:48.804Z,720.00
2023-04-16T09:34:48.858Z,721.00
2023-04-16T09:35:48.923Z,678.00
2023-04-16T09:36:48.970Z,687.00
2023-04-16T09:37:49.017Z,663.00
2023-04-16T09:38:49.073Z,661.00
2023-04-16T09:39:49.115Z,683.00
2023-04-16T09:40:49.177Z,683.00
2023-04-16T09:41:49.242Z,745.00
2023-04-16T09:42:49.293Z,728.00
2023-04-16T09:43:49.352Z,684.00
2023-04-16T09:44:49.415Z,658.00
2023-04-16T09:45:49.484Z,665.00
2023-04-16T09:46:49.519Z,670.00
2023-04-16T09:47:49.589Z,660.00
2023-04-16T09:48:49.623Z,658.00
2023-04-16T09:49:49.651Z,663.00
2023-04-16T09:50:49.702Z,684.00
2023-04-16T09:51:49.767Z,683.00
2023-04-16T09:52:49.840Z,704.00
2023-04-16T09:53:49.856Z,678.00
2023-04-16T09:54:49.925Z,661.00
2023-04-16T09:55:49.963Z,640.00
2023-04-16T09:56:50.020Z,649.00
2023-04-16T09:57:50.061Z,657.00
2023-04-16T09:58:50.153Z,659.00
2023-04-16T09:59:50.165Z,656.00
2023-04-16T10:00:50.286Z,657.00
2023-04-16T10:01:50.437Z,648.00
2023-04-16T10:02:50.831Z,638.00
2023-04-16T10:03:50.485Z,630.00
2023-04-16T10:04:50.558Z,635.00
2023-04-16T10:05:50.443Z,632.00
2023-04-16T10:06:50.504Z,626.00
2023-04-16T10:07:50.566Z,621.00
2023-04-16T10:08:50.777Z,620.00
2023-04-16T10:09:50.634Z,625.00
2023-04-16T10:10:50.678Z,618.00
2023-04-16T10:11:50.728Z,621.00
2023-04-16T10:12:50.765Z,611.00
2023-04-16T10:13:50.827Z,617.00
2023-04-16T10:14:50.861Z,615.00
2023-04-16T10:15:50.887Z,615.00
2023-04-16T10:16:51.055Z,605.00
2023-04-16T10:17:51.148Z,601.00
2023-04-16T10:18:51.038Z,597.00
2023-04-16T10:19:51.056Z,596.00
2023-04-16T10:20:51.134Z,592.00
2023-04-16T10:21:51.152Z,595.00
2023-04-16T10:22:51.191Z,593.00
2023-04-16T10:23:51.249Z,591.00
2023-04-16T10:24:51.275Z,600.00
2023-04-16T10:25:51.298Z,597.00
2023-04-16T10:26:51.360Z,606.00
2023-04-16T10:27:51.388Z,612.00
2023-04-16T10:28:51.417Z,612.00
2023-04-16T10:29:51.467Z,611.00
2023-04-16T10:30:51.547Z,624.00
2023-04-16T10:31:51.536Z,623.00
2023-04-16T10:32:51.602Z,616.00
2023-04-16T10:33:51.613Z,613.00
2023-04-16T10:34:51.641Z,607.00
2023-04-16T10:36:01.305Z,603.00
2023-04-16T10:36:52.657Z,603.00
2023-04-16T10:37:51.666Z,603.00
2023-04-16T10:38:51.645Z,605.00
2023-04-16T10:39:51.648Z,609.00
2023-04-16T10:40:51.647Z,613.00
2023-04-16T10:41:51.640Z,603.00
2023-04-16T10:42:51.698Z,606.00
2023-04-16T10:43:51.657Z,596.00
2023-04-16T10:44:51.621Z,597.00
2023-04-16T10:45:51.642Z,599.00
2023-04-16T10:46:51.586Z,601.00
2023-04-16T10:47:51.589Z,605.00
2023-04-16T10:48:51.573Z,597.00
2023-04-16T10:49:51.561Z,597.00
2023-04-16T10:50:52.240Z,601.00
2023-04-16T10:51:51.609Z,603.00
2023-04-16T10:52:51.623Z,602.00
2023-04-16T10:53:51.655Z,599.00
2023-04-16T10:54:51.689Z,601.00
2023-04-16T10:55:51.707Z,598.00
2023-04-16T10:56:51.749Z,599.00
2023-04-16T10:57:51.770Z,593.00
2023-04-16T10:58:51.791Z,591.00
2023-04-16T10:59:51.836Z,590.00
2023-04-16T11:00:51.885Z,595.00
2023-04-16T11:01:51.950Z,601.00
2023-04-16T11:02:51.997Z,603.00
2023-04-16T11:03:52.081Z,607.00
2023-04-16T11:04:51.997Z,604.00
2023-04-16T11:05:51.996Z,604.00
2023-04-16T11:06:52.016Z,595.00
2023-04-16T11:07:52.039Z,599.00
2023-04-16T11:08:54.941Z,610.00
2023-04-16T11:09:52.066Z,607.00
2023-04-16T11:10:52.063Z,600.00
2023-04-16T11:11:52.055Z,606.00
2023-04-16T11:12:52.034Z,605.00
2023-04-16T11:13:52.040Z,609.00
2023-04-16T11:14:52.013Z,610.00
2023-04-16T11:15:52.037Z,613.00
2023-04-16T11:16:52.009Z,612.00
2023-04-16T11:17:52.154Z,609.00
2023-04-16T11:18:52.047Z,614.00
2023-04-16T11:19:53.668Z,628.00
2023-04-16T11:20:51.995Z,633.00
2023-04-16T11:21:51.968Z,621.00
2023-04-16T11:22:52.014Z,633.00
2023-04-16T11:23:51.977Z,624.00
2023-04-16T11:24:51.950Z,624.00
2023-04-16T11:25:51.945Z,621.00
2023-04-16T11:26:51.961Z,620.00
2023-04-16T11:27:51.997Z,622.00
2023-04-16T11:28:51.935Z,626.00
2023-04-16T11:29:51.936Z,623.00
2023-04-16T11:30:51.915Z,631.00
2023-04-16T11:31:52.009Z,628.00
2023-04-16T11:32:51.926Z,637.00
2023-04-16T11:33:51.911Z,634.00
2023-04-16T11:34:51.887Z,629.00
2023-04-16T11:35:51.901Z,621.00
2023-04-16T11:36:51.892Z,624.00
2023-04-16T11:37:51.888Z,639.00
2023-04-16T11:38:51.878Z,624.00
2023-04-16T11:39:51.873Z,636.00
2023-04-16T11:40:51.882Z,631.00
2023-04-16T11:41:51.841Z,632.00
2023-04-16T11:42:51.861Z,624.00
2023-04-16T11:43:51.840Z,620.00
2023-04-16T11:44:51.876Z,626.00
2023-04-16T11:45:51.899Z,624.00
2023-04-16T11:46:51.964Z,638.00
2023-04-16T11:47:52.249Z,630.00
2023-04-16T11:48:51.970Z,630.00
2023-04-16T11:49:51.982Z,624.00
2023-04-16T11:50:52.024Z,631.00
2023-04-16T11:51:52.008Z,640.00
2023-04-16T11:52:52.038Z,629.00
2023-04-16T11:53:52.049Z,632.00
2023-04-16T11:54:52.076Z,632.00
2023-04-16T11:55:52.096Z,622.00
2023-04-16T11:56:52.117Z,623.00
2023-04-16T11:57:52.416Z,616.00
2023-04-16T11:58:52.151Z,619.00
2023-04-16T12:00:01.685Z,621.00
2023-04-16T12:00:53.170Z,621.00
2023-04-16T12:01:52.237Z,621.00
2023-04-16T12:02:52.432Z,617.00
2023-04-16T12:03:52.307Z,611.00
2023-04-16T12:04:52.232Z,614.00
2023-04-16T12:05:52.137Z,618.00
2023-04-16T12:06:52.146Z,617.00
2023-04-16T12:07:52.136Z,620.00
2023-04-16T12:08:52.115Z,619.00
2023-04-16T12:09:52.133Z,611.00
2023-04-16T12:10:52.121Z,618.00
2023-04-16T12:11:52.102Z,620.00
2023-04-16T12:12:52.105Z,614.00
2023-04-16T12:13:52.084Z,612.00
2023-04-16T12:14:52.099Z,616.00
2023-04-16T12:15:52.077Z,615.00
2023-04-16T12:16:52.124Z,618.00
2023-04-16T12:17:52.118Z,613.00
2023-04-16T12:18:52.124Z,611.00
2023-04-16T12:19:52.131Z,618.00
2023-04-16T12:20:52.157Z,612.00
2023-04-16T12:21:52.199Z,612.00
2023-04-16T12:22:52.220Z,606.00
2023-04-16T12:23:52.231Z,602.00
2023-04-16T12:24:52.273Z,604.00
2023-04-16T12:25:52.280Z,608.00
2023-04-16T12:26:52.326Z,602.00
2023-04-16T12:27:53.727Z,606.00
2023-04-16T12:28:52.355Z,594.00